createdAt,value
2022-11-16T00:00:00.298Z,8.25
2022-11-16T00:02:31.412Z,8.22
2022-11-16T00:04:57.859Z,8.21
2022-11-16T00:07:24.353Z,8.20
2022-11-16T00:09:50.821Z,8.18
2022-11-16T00:12:17.293Z,8.18
2022-11-16T00:14:43.733Z,8.17
2022-11-16T00:17:10.200Z,8.16
2022-11-16T00:19:36.761Z,8.15
2022-11-16T00:22:03.233Z,8.16
2022-11-16T00:24:29.695Z,8.15
2022-11-16T00:26:56.187Z,8.14
2022-11-16T00:29:25.478Z,8.08
2022-11-16T00:31:53.844Z,8.13
2022-11-16T00:34:21.600Z,8.13
2022-11-16T00:36:48.754Z,8.14
2022-11-16T00:39:16.538Z,8.14
2022-11-16T00:41:45.684Z,8.15
2022-11-16T00:44:12.540Z,8.15
2022-11-16T00:46:39.485Z,8.14
2022-11-16T00:49:06.915Z,8.17
2022-11-16T00:51:34.464Z,8.19
2022-11-16T00:54:01.099Z,8.21
2022-11-16T00:56:27.979Z,8.22
2022-11-16T00:58:54.412Z,8.24
2022-11-16T01:01:21.034Z,8.25
2022-11-16T01:03:50.305Z,8.29
2022-11-16T01:06:17.234Z,8.30
2022-11-16T01:08:44.376Z,8.31
2022-11-16T01:11:14.084Z,8.33
2022-11-16T01:13:41.353Z,8.33
2022-11-16T01:16:07.872Z,8.34
2022-11-16T01:18:34.475Z,8.34
2022-11-16T01:21:01.194Z,8.33
2022-11-16T01:23:27.673Z,8.34
2022-11-16T01:25:58.294Z,8.33
2022-11-16T01:28:25.643Z,8.35
2022-11-16T01:30:52.102Z,8.35
2022-11-16T01:33:19.194Z,8.35
2022-11-16T01:35:45.666Z,8.35
2022-11-16T01:38:14.916Z,8.34
2022-11-16T01:40:41.566Z,8.35
2022-11-16T01:43:26.598Z,8.33
2022-11-16T01:45:59.328Z,8.34
2022-11-16T01:48:30.087Z,8.27
2022-11-16T01:50:57.770Z,8.34
2022-11-16T01:53:25.004Z,8.35
2022-11-16T01:55:55.358Z,8.36
2022-11-16T01:58:46.233Z,8.36
2022-11-16T02:01:25.278Z,8.39
2022-11-16T02:03:55.395Z,8.41
2022-11-16T02:06:37.660Z,8.43
2022-11-16T02:09:44.047Z,8.39
2022-11-16T02:12:19.745Z,8.50
2022-11-16T02:15:00.911Z,8.43
2022-11-16T02:17:40.472Z,8.46
2022-11-16T02:20:15.105Z,8.51
2022-11-16T02:23:00.211Z,8.47
2022-11-16T02:25:48.582Z,8.45
2022-11-16T02:28:21.155Z,8.44
2022-11-16T02:30:53.357Z,8.41
2022-11-16T02:33:25.493Z,8.37
2022-11-16T02:35:56.296Z,8.27
2022-11-16T02:38:28.088Z,8.32
2022-11-16T02:41:08.066Z,8.29
2022-11-16T02:43:41.044Z,8.20
2022-11-16T02:46:12.876Z,8.20
2022-11-16T02:48:45.269Z,8.25
2022-11-16T02:51:12.752Z,8.24
2022-11-16T02:53:50.410Z,8.15
2022-11-16T02:56:17.997Z,8.20
2022-11-16T02:58:46.526Z,8.21
2022-11-16T03:01:23.392Z,8.22
2022-11-16T03:04:01.787Z,8.18
2022-11-16T03:06:32.958Z,8.15
2022-11-16T03:09:08.678Z,8.12
2022-11-16T03:11:39.238Z,8.16
2022-11-16T03:14:11.948Z,8.12
2022-11-16T03:16:42.477Z,8.08
2022-11-16T03:19:12.526Z,7.98
2022-11-16T03:21:52.832Z,7.98
2022-11-16T03:24:20.458Z,7.94
2022-11-16T03:27:04.484Z,7.90
2022-11-16T03:29:35.374Z,7.80
2022-11-16T03:32:17.875Z,7.81
2022-11-16T03:34:56.161Z,7.74
2022-11-16T03:37:25.267Z,7.74
2022-11-16T03:39:53.872Z,7.72
2022-11-16T03:42:23.853Z,7.68
2022-11-16T03:44:50.693Z,7.66
2022-11-16T03:47:17.281Z,7.64
2022-11-16T03:49:46.608Z,7.60
2022-11-16T03:52:16.540Z,7.59
2022-11-16T03:54:43.793Z,7.55
2022-11-16T03:57:11.258Z,7.56
2022-11-16T03:59:37.732Z,7.54
2022-11-16T04:02:04.200Z,7.53
2022-11-16T04:04:31.116Z,7.52
2022-11-16T04:06:57.884Z,7.52
2022-11-16T04:09:24.363Z,7.51
2022-11-16T04:11:51.015Z,7.53
2022-11-16T04:14:20.926Z,7.49
2022-11-16T04:16:47.419Z,7.55
2022-11-16T04:19:13.863Z,7.59
2022-11-16T04:21:46.065Z,7.53
2022-11-16T04:24:21.610Z,7.55
2022-11-16T04:26:52.963Z,7.61
2022-11-16T04:29:19.808Z,7.60
2022-11-16T04:31:46.342Z,7.59
2022-11-16T04:34:12.840Z,7.57
2022-11-16T04:36:44.787Z,7.56
2022-11-16T04:39:12.029Z,7.57
2022-11-16T04:41:38.784Z,7.55
2022-11-16T04:44:05.648Z,7.53
2022-11-16T04:46:33.837Z,7.53
2022-11-16T04:49:00.448Z,7.53
2022-11-16T04:51:26.945Z,7.53
2022-11-16T04:53:53.492Z,7.53
2022-11-16T04:56:22.243Z,7.52
2022-11-16T04:58:49.055Z,7.52
2022-11-16T05:01:15.663Z,7.52
2022-11-16T05:03:42.892Z,7.52
2022-11-16T05:06:09.319Z,7.50
2022-11-16T05:08:36.089Z,7.49
2022-11-16T05:11:04.375Z,7.48
2022-11-16T05:13:31.770Z,7.48
2022-11-16T05:15:58.296Z,7.46
2022-11-16T05:18:25.616Z,7.43
2022-11-16T05:20:52.034Z,7.42
2022-11-16T05:23:18.673Z,7.40
2022-11-16T05:25:45.150Z,7.40
2022-11-16T05:28:11.925Z,7.38
2022-11-16T05:30:40.803Z,7.37
2022-11-16T05:33:07.702Z,7.34
2022-11-16T05:35:38.326Z,7.33
2022-11-16T05:38:04.860Z,7.31
2022-11-16T05:40:34.933Z,7.30
2022-11-16T05:43:01.445Z,7.28
2022-11-16T05:45:31.800Z,7.28
2022-11-16T05:48:00.038Z,7.28
2022-11-16T05:50:26.542Z,7.27
2022-11-16T05:53:04.946Z,7.26
2022-11-16T05:55:34.873Z,7.27
2022-11-16T05:58:01.847Z,7.26
2022-11-16T06:00:28.353Z,7.27
2022-11-16T06:02:55.370Z,7.27
2022-11-16T06:05:26.788Z,7.27
2022-11-16T06:07:54.394Z,7.28
2022-11-16T06:10:22.209Z,7.28
2022-11-16T06:12:50.823Z,7.28
2022-11-16T06:15:17.870Z,7.28
2022-11-16T06:17:44.496Z,7.27
2022-11-16T06:20:11.932Z,7.27
2022-11-16T06:22:39.267Z,7.26
2022-11-16T06:25:06.565Z,7.28
2022-11-16T06:27:37.281Z,7.28
2022-11-16T06:30:04.390Z,7.31
2022-11-16T06:32:32.976Z,7.32
2022-11-16T06:34:59.637Z,7.34
2022-11-16T06:37:26.413Z,7.38
2022-11-16T06:39:52.947Z,7.39
2022-11-16T06:42:19.446Z,7.41
2022-11-16T06:44:46.193Z,7.43
2022-11-16T06:47:15.373Z,7.45
2022-11-16T06:49:42.146Z,7.49
2022-11-16T06:52:15.883Z,7.50
2022-11-16T06:54:42.338Z,7.52
2022-11-16T06:57:08.822Z,7.55
2022-11-16T06:59:35.497Z,7.58
2022-11-16T07:02:02.005Z,7.61
2022-11-16T07:04:32.420Z,7.62
2022-11-16T07:06:59.281Z,7.64
2022-11-16T07:09:26.419Z,7.65
2022-11-16T07:11:53.038Z,7.67
2022-11-16T07:14:20.654Z,7.68
2022-11-16T07:16:47.158Z,7.70
2022-11-16T07:19:13.769Z,7.72
2022-11-16T07:21:41.160Z,7.76
2022-11-16T07:24:13.038Z,7.77
2022-11-16T07:26:39.555Z,7.81
2022-11-16T07:29:10.890Z,7.81
2022-11-16T07:31:42.111Z,7.86
2022-11-16T07:34:46.571Z,7.86
2022-11-16T07:37:15.722Z,7.86
2022-11-16T07:39:43.319Z,7.83
2022-11-16T07:42:09.950Z,7.83
2022-11-16T07:45:05.916Z,7.86
2022-11-16T07:47:37.514Z,7.87
2022-11-16T07:50:06.836Z,7.88
2022-11-16T07:52:35.218Z,7.92
2022-11-16T07:55:07.160Z,7.95
2022-11-16T07:57:34.383Z,7.98
2022-11-16T08:00:05.841Z,8.03
2022-11-16T08:02:45.042Z,8.08
2022-11-16T08:05:17.408Z,8.13
2022-11-16T08:07:44.304Z,8.19
2022-11-16T08:10:11.279Z,8.22
2022-11-16T08:12:38.889Z,8.25
2022-11-16T08:15:06.683Z,8.26
2022-11-16T08:17:33.185Z,8.27
2022-11-16T08:19:59.680Z,8.25
2022-11-16T08:22:26.205Z,8.24
2022-11-16T08:24:52.658Z,8.23
2022-11-16T08:27:19.109Z,8.22
2022-11-16T08:29:50.267Z,8.21
2022-11-16T08:32:16.723Z,8.16
2022-11-16T08:34:43.790Z,8.20
2022-11-16T08:37:10.486Z,8.23
2022-11-16T08:39:43.485Z,8.26
2022-11-16T08:42:09.987Z,8.30
2022-11-16T08:44:37.690Z,8.35
2022-11-16T08:47:08.857Z,8.44
2022-11-16T08:49:48.309Z,8.50
2022-11-16T08:52:16.912Z,8.57
2022-11-16T08:54:43.776Z,8.62
2022-11-16T08:57:10.838Z,8.69
2022-11-16T08:59:39.264Z,8.71
2022-11-16T09:02:10.367Z,8.74
2022-11-16T09:04:37.360Z,8.78
2022-11-16T09:07:03.997Z,8.80
2022-11-16T09:09:30.519Z,8.82
2022-11-16T09:11:57.035Z,8.84
2022-11-16T09:14:23.526Z,8.86
2022-11-16T09:16:49.938Z,8.88
2022-11-16T09:19:16.403Z,8.91
2022-11-16T09:21:43.100Z,8.94
2022-11-16T09:24:09.904Z,8.97
2022-11-16T09:26:36.351Z,9.00
2022-11-16T09:29:02.832Z,9.03
2022-11-16T09:31:32.413Z,9.02
2022-11-16T09:33:59.190Z,9.12
2022-11-16T09:36:27.644Z,9.19
2022-11-16T09:42:13.796Z,9.36
2022-11-16T09:45:04.763Z,9.53
2022-11-16T09:47:47.241Z,9.65
2022-11-16T09:50:45.982Z,9.76
2022-11-16T09:53:45.378Z,9.87
2022-11-16T09:56:22.635Z,9.96
2022-11-16T09:59:15.004Z,10.10
2022-11-16T10:01:54.996Z,10.22
2022-11-16T10:04:37.812Z,10.25
2022-11-16T10:07:12.202Z,10.40
2022-11-16T10:09:38.902Z,10.47
2022-11-16T10:12:23.741Z,10.49
2022-11-16T10:14:59.213Z,10.55
2022-11-16T10:17:49.846Z,10.57
2022-11-16T10:20:53.513Z,10.53
2022-11-16T10:23:29.479Z,10.50
2022-11-16T10:26:02.462Z,10.47
2022-11-16T10:28:49.862Z,10.43
2022-11-16T10:31:30.751Z,10.42
2022-11-16T10:34:01.543Z,10.35
2022-11-16T10:36:32.350Z,10.41
2022-11-16T10:39:00.324Z,10.43
2022-11-16T10:41:41.964Z,10.47
2022-11-16T10:44:31.710Z,10.55
2022-11-16T10:47:19.536Z,10.53
2022-11-16T10:49:53.378Z,10.60
2022-11-16T10:52:19.903Z,10.61
2022-11-16T10:54:46.304Z,10.60
2022-11-16T10:57:12.805Z,10.58
2022-11-16T10:59:43.547Z,10.55
2022-11-16T11:02:24.968Z,10.53
2022-11-16T11:05:03.712Z,10.57
2022-11-16T11:07:33.004Z,10.62
2022-11-16T11:09:59.545Z,10.69
2022-11-16T11:12:27.153Z,10.74
2022-11-16T11:15:06.654Z,10.73
2022-11-16T11:17:35.503Z,10.77
2022-11-16T11:20:04.983Z,10.86
2022-11-16T11:22:51.897Z,10.89
2022-11-16T11:25:30.453Z,10.89
2022-11-16T11:28:16.607Z,10.88
2022-11-16T11:31:03.140Z,10.87
2022-11-16T11:33:34.967Z,10.89
2022-11-16T11:36:20.703Z,10.82
2022-11-16T11:39:12.139Z,10.86
2022-11-16T11:41:44.435Z,10.87
2022-11-16T11:44:13.889Z,10.95
2022-11-16T11:47:35.190Z,10.99
2022-11-16T11:49:41.112Z,11.00
2022-11-16T11:52:19.019Z,11.11
2022-11-16T11:54:46.643Z,11.19
2022-11-16T11:57:16.591Z,11.26
2022-11-16T11:59:43.073Z,11.40
2022-11-16T12:02:43.065Z,11.48
2022-11-16T12:05:34.405Z,11.58
2022-11-16T12:08:27.037Z,11.64
2022-11-16T12:11:07.362Z,11.68
2022-11-16T12:13:58.721Z,11.69
2022-11-16T12:17:02.379Z,11.70
2022-11-16T12:19:40.631Z,11.72
2022-11-16T12:22:37.908Z,11.74
2022-11-16T12:25:17.564Z,11.79
2022-11-16T12:28:08.880Z,11.85
2022-11-16T12:30:52.344Z,11.90
2022-11-16T12:33:37.297Z,12.00
2022-11-16T12:36:28.808Z,12.05
2022-11-16T12:39:14.026Z,12.11
2022-11-16T12:42:02.083Z,12.20
2022-11-16T12:45:00.759Z,12.35
2022-11-16T12:47:56.630Z,12.49
2022-11-16T12:50:26.153Z,12.56
2022-11-16T12:52:52.516Z,12.65
2022-11-16T12:55:44.001Z,12.73
2022-11-16T12:58:34.762Z,12.77
2022-11-16T13:01:20.266Z,12.71
2022-11-16T13:03:54.351Z,12.67
2022-11-16T13:06:31.039Z,12.62
2022-11-16T13:09:06.670Z,12.67
2022-11-16T13:11:40.157Z,12.68
2022-11-16T13:14:19.378Z,12.69
2022-11-16T13:16:47.219Z,12.74
2022-11-16T13:19:16.420Z,12.71
2022-11-16T13:21:58.915Z,12.74
2022-11-16T13:24:52.453Z,12.76
2022-11-16T13:27:53.276Z,12.79
2022-11-16T13:30:26.969Z,12.83
2022-11-16T13:33:15.326Z,12.86
2022-11-16T13:35:41.806Z,12.89
2022-11-16T13:38:11.583Z,12.86
2022-11-16T13:40:38.212Z,12.94
2022-11-16T13:43:10.590Z,12.96
2022-11-16T13:45:51.168Z,12.97
2022-11-16T13:48:35.981Z,12.98
2022-11-16T13:51:20.170Z,12.93
2022-11-16T13:56:49.265Z,12.98
2022-11-16T13:59:16.430Z,12.98
2022-11-16T14:02:23.024Z,12.95
2022-11-16T14:04:59.407Z,12.90
2022-11-16T14:07:43.343Z,12.94
2022-11-16T14:10:11.737Z,12.93
2022-11-16T14:12:38.150Z,12.90
2022-11-16T14:15:15.641Z,12.84
2022-11-16T14:17:55.297Z,12.75
2022-11-16T14:20:30.792Z,12.71
2022-11-16T14:23:30.438Z,12.69
2022-11-16T14:26:24.372Z,12.67
2022-11-16T14:29:10.618Z,12.67
2022-11-16T14:31:54.019Z,12.64
2022-11-16T14:34:40.974Z,12.59
2022-11-16T14:37:22.541Z,12.51
2022-11-16T14:39:57.405Z,12.41
2022-11-16T14:42:38.174Z,12.29
2022-11-16T14:45:47.094Z,12.19
2022-11-16T14:48:19.931Z,12.09
2022-11-16T14:51:02.347Z,12.04
2022-11-16T14:53:29.379Z,11.97
2022-11-16T14:56:07.193Z,11.88
2022-11-16T14:58:33.709Z,11.84
2022-11-16T15:01:03.007Z,11.78
2022-11-16T15:03:45.553Z,11.68
2022-11-16T15:06:15.928Z,11.65
2022-11-16T15:08:48.018Z,11.60
2022-11-16T15:11:26.209Z,11.51
2022-11-16T15:13:54.262Z,11.51
2022-11-16T15:16:20.742Z,11.44
2022-11-16T15:19:01.590Z,11.42
2022-11-16T15:21:28.653Z,11.39
2022-11-16T15:24:23.435Z,11.35
2022-11-16T15:26:43.024Z,11.30
2022-11-16T15:29:16.514Z,11.23
2022-11-16T15:31:43.357Z,11.23
2022-11-16T15:34:19.817Z,11.19
2022-11-16T15:36:47.025Z,11.18
2022-11-16T15:39:26.961Z,11.13
2022-11-16T15:41:56.426Z,11.11
2022-11-16T15:44:28.034Z,11.09
2022-11-16T15:46:55.986Z,11.07
2022-11-16T15:49:36.053Z,11.04
2022-11-16T15:52:03.010Z,11.03
2022-11-16T15:54:35.065Z,10.96
2022-11-16T15:57:09.822Z,11.00
2022-11-16T15:59:37.246Z,10.99
2022-11-16T16:02:04.576Z,10.99
2022-11-16T16:04:31.176Z,11.00
2022-11-16T16:06:59.645Z,10.93
2022-11-16T16:09:38.199Z,10.91
2022-11-16T16:12:21.430Z,10.94
2022-11-16T16:14:49.831Z,10.93
2022-11-16T16:17:29.079Z,10.91
2022-11-16T16:20:06.579Z,10.86
2022-11-16T16:22:35.689Z,10.90
2022-11-16T16:25:04.019Z,10.90
2022-11-16T16:27:31.765Z,10.87
2022-11-16T16:30:02.716Z,10.88
2022-11-16T16:32:31.280Z,10.85
2022-11-16T16:34:59.673Z,10.84
2022-11-16T16:37:28.685Z,10.78
2022-11-16T16:39:55.247Z,10.84
2022-11-16T16:42:22.057Z,10.80
2022-11-16T16:44:49.251Z,10.80
2022-11-16T16:47:17.239Z,10.78
2022-11-16T16:49:43.756Z,10.76
2022-11-16T16:52:13.587Z,10.74
2022-11-16T16:54:40.814Z,10.73
2022-11-16T16:57:12.787Z,10.72
2022-11-16T16:59:39.275Z,10.72
2022-11-16T17:02:05.747Z,10.72
2022-11-16T17:04:32.646Z,10.72
2022-11-16T17:06:59.117Z,10.73
2022-11-16T17:09:25.597Z,10.74
2022-11-16T17:11:52.003Z,10.76
2022-11-16T17:14:18.473Z,10.77
2022-11-16T17:16:44.889Z,10.77
2022-11-16T17:19:11.375Z,10.76
2022-11-16T17:21:37.833Z,10.74
2022-11-16T17:24:04.763Z,10.73
2022-11-16T17:26:31.156Z,10.72
2022-11-16T17:28:58.134Z,10.68
2022-11-16T17:31:25.748Z,10.66
2022-11-16T17:33:52.512Z,10.65
2022-11-16T17:36:19.474Z,10.58
2022-11-16T17:38:46.243Z,10.59
2022-11-16T17:41:15.850Z,10.58
2022-11-16T17:43:43.828Z,10.56
2022-11-16T17:46:13.062Z,10.51
2022-11-16T17:48:41.599Z,10.55
2022-11-16T17:51:08.482Z,10.57
2022-11-16T17:53:36.103Z,10.56
2022-11-16T17:56:03.723Z,10.59
2022-11-16T17:58:30.839Z,10.60
2022-11-16T18:00:58.125Z,10.60
2022-11-16T18:03:25.099Z,10.57
2022-11-16T18:05:51.761Z,10.61
2022-11-16T18:08:18.214Z,10.62
2022-11-16T18:10:44.638Z,10.63
2022-11-16T18:13:11.116Z,10.64
2022-11-16T18:15:42.380Z,10.64
2022-11-16T18:18:09.063Z,10.65
2022-11-16T18:20:37.174Z,10.65
2022-11-16T18:23:04.495Z,10.64
2022-11-16T18:25:33.941Z,10.65
2022-11-16T18:28:00.396Z,10.65
2022-11-16T18:30:26.792Z,10.66
2022-11-16T18:32:53.259Z,10.66
2022-11-16T18:35:19.697Z,10.66
2022-11-16T18:37:46.152Z,10.67
2022-11-16T18:40:13.133Z,10.67
2022-11-16T18:42:39.815Z,10.66
2022-11-16T18:45:06.932Z,10.68
2022-11-16T18:47:33.390Z,10.68
2022-11-16T18:49:59.795Z,10.69
2022-11-16T18:52:26.256Z,10.70
2022-11-16T18:54:52.650Z,10.71
2022-11-16T18:57:19.165Z,10.72
2022-11-16T18:59:45.598Z,10.71
2022-11-16T19:02:12.342Z,10.73
2022-11-16T19:04:38.886Z,10.70
2022-11-16T19:07:05.804Z,10.74
2022-11-16T19:09:32.238Z,10.73
2022-11-16T19:11:58.710Z,10.75
2022-11-16T19:14:25.124Z,10.76
2022-11-16T19:16:56.917Z,10.75
2022-11-16T19:19:24.087Z,10.77
2022-11-16T19:21:50.499Z,10.78
2022-11-16T19:24:16.942Z,10.79
2022-11-16T19:26:43.390Z,10.81
2022-11-16T19:29:09.852Z,10.82
2022-11-16T19:31:36.306Z,10.81
2022-11-16T19:34:05.384Z,10.81
2022-11-16T19:36:33.420Z,10.81
2022-11-16T19:39:00.043Z,10.79
2022-11-16T19:41:27.618Z,10.78
2022-11-16T19:43:55.790Z,10.78
2022-11-16T19:46:22.990Z,10.77
2022-11-16T19:48:50.248Z,10.75
2022-11-16T19:51:19.548Z,10.68
2022-11-16T19:53:46.736Z,10.72
2022-11-16T19:56:15.212Z,10.69
2022-11-16T19:58:42.337Z,10.66
2022-11-16T20:01:23.340Z,10.64
2022-11-16T20:03:49.895Z,10.63
2022-11-16T20:06:18.156Z,10.59
2022-11-16T20:08:52.769Z,10.56
2022-11-16T20:11:24.759Z,10.47
2022-11-16T20:13:53.234Z,10.43
2022-11-16T20:16:21.891Z,10.47
2022-11-16T20:18:49.451Z,10.44
2022-11-16T20:21:21.938Z,10.41
2022-11-16T20:23:49.159Z,10.40
2022-11-16T20:26:15.731Z,10.40
2022-11-16T20:28:43.398Z,10.37
2022-11-16T20:31:15.472Z,10.36
2022-11-16T20:33:43.104Z,10.36
2022-11-16T20:36:11.669Z,10.28
2022-11-16T20:38:39.096Z,10.33
2022-11-16T20:41:13.974Z,10.28
2022-11-16T20:43:41.499Z,10.29
2022-11-16T20:46:09.702Z,10.25
2022-11-16T20:48:37.221Z,10.26
2022-11-16T20:51:04.671Z,10.26
2022-11-16T20:53:31.675Z,10.24
2022-11-16T20:55:58.457Z,10.22
2022-11-16T20:58:25.234Z,10.20
2022-11-16T21:00:51.659Z,10.15
2022-11-16T21:03:18.216Z,10.12
2022-11-16T21:05:46.390Z,10.07
2022-11-16T21:08:13.037Z,10.04
2022-11-16T21:10:39.678Z,10.00
2022-11-16T21:13:06.983Z,9.96
2022-11-16T21:15:33.454Z,9.89
2022-11-16T21:17:59.914Z,9.85
2022-11-16T21:20:28.125Z,9.81
2022-11-16T21:22:55.114Z,9.76
2022-11-16T21:25:21.630Z,9.73
2022-11-16T21:27:48.080Z,9.66
2022-11-16T21:30:14.549Z,9.64
2022-11-16T21:32:41.008Z,9.61
2022-11-16T21:35:07.784Z,9.56
2022-11-16T21:37:34.252Z,9.52
2022-11-16T21:40:00.758Z,9.51
2022-11-16T21:42:27.450Z,9.47
2022-11-16T21:44:53.871Z,9.44
2022-11-16T21:47:21.115Z,9.42
2022-11-16T21:50:08.685Z,9.40
2022-11-16T21:52:34.044Z,9.37
2022-11-16T21:55:00.471Z,9.35
2022-11-16T21:57:26.963Z,9.34
2022-11-16T21:59:53.434Z,9.33
2022-11-16T22:02:19.858Z,9.31
2022-11-16T22:04:46.262Z,9.29
2022-11-16T22:07:15.621Z,9.26
2022-11-16T22:09:42.099Z,9.23
2022-11-16T22:12:08.486Z,9.22
2022-11-16T22:14:34.955Z,9.18
2022-11-16T22:17:01.340Z,9.16
2022-11-16T22:19:27.775Z,9.14
2022-11-16T22:21:54.218Z,9.10
2022-11-16T22:24:20.761Z,9.09
2022-11-16T22:26:47.207Z,9.08
2022-11-16T22:29:13.668Z,9.06
2022-11-16T22:31:40.059Z,9.05
2022-11-16T22:34:06.504Z,9.03
2022-11-16T22:36:32.935Z,9.01
2022-11-16T22:39:00.256Z,9.01
2022-11-16T22:41:26.679Z,9.02
2022-11-16T22:43:53.176Z,9.03
2022-11-16T22:46:19.615Z,9.00
2022-11-16T22:48:46.083Z,9.02
2022-11-16T22:51:24.972Z,8.94
2022-11-16T22:53:56.089Z,9.01
2022-11-16T22:56:23.146Z,9.04
2022-11-16T22:58:50.038Z,9.02
2022-11-16T23:01:16.587Z,9.02
2022-11-16T23:03:43.130Z,9.05
2022-11-16T23:06:09.749Z,9.06
2022-11-16T23:08:36.707Z,9.08
2022-11-16T23:11:14.743Z,9.05
2022-11-16T23:13:41.191Z,9.12
2022-11-16T23:16:07.777Z,9.13
2022-11-16T23:18:34.250Z,9.15
2022-11-16T23:21:00.646Z,9.19
2022-11-16T23:23:27.093Z,9.21
2022-11-16T23:25:53.531Z,9.22
2022-11-16T23:28:20.275Z,9.24
2022-11-16T23:30:46.691Z,9.27
2022-11-16T23:33:13.454Z,9.29
2022-11-16T23:35:39.898Z,9.33
2022-11-16T23:38:07.610Z,9.36
2022-11-16T23:40:36.555Z,9.38
2022-11-16T23:43:03.789Z,9.42
2022-11-16T23:45:30.229Z,9.45
2022-11-16T23:47:56.709Z,9.47
2022-11-16T23:50:23.282Z,9.49
2022-11-16T23:52:49.805Z,9.52
2022-11-16T23:55:16.380Z,9.54
2022-11-16T23:57:42.844Z,9.54
